Time;durP1;ratioP1;P1;durP2;ratioP2;P2;SDS_P1;SDS_P2;PMS_P1;PMS_P2;Temp;Humidity;BMP_temperature;BMP_pressure;BME280_temperature;BME280_humidity;BME280_pressure;Samples;Min_cycle;Max_cycle;Signal;HPM_P1;HPM_P2
2023/04/30 00:01:29;;;;;;;5.38;4.88;;;;;;;9.57;100.00;62985.13;5007362;28;20297;-78
2023/04/30 00:03:56;;;;;;;5.13;4.65;;;;;;;9.48;100.00;62977.84;5008151;28;20488;-77
2023/04/30 00:06:25;;;;;;;6.63;4.75;;;;;;;9.45;100.00;62972.72;5015393;28;20202;-78
2023/04/30 00:08:52;;;;;;;6.43;4.15;;;;;;;9.45;100.00;62977.81;5010282;28;20235;-77
2023/04/30 00:11:19;;;;;;;6.10;4.32;;;;;;;9.43;100.00;62967.59;5021095;28;20399;-76
2023/04/30 00:13:47;;;;;;;6.38;4.57;;;;;;;9.46;99.77;62978.84;5028313;28;20424;-78
2023/04/30 00:16:14;;;;;;;4.25;3.95;;;;;;;9.48;99.51;62977.84;5009500;28;20211;-80
2023/04/30 00:18:41;;;;;;;11.43;4.13;;;;;;;9.47;99.56;62976.81;5008718;28;20230;-77
2023/04/30 00:21:08;;;;;;;5.25;4.75;;;;;;;9.40;100.00;62969.59;5007744;28;20203;-79
2023/04/30 00:23:37;;;;;;;5.05;4.63;;;;;;;9.35;100.00;62965.44;5010121;28;20317;-80
2023/04/30 00:26:05;;;;;;;6.70;4.95;;;;;;;9.30;100.00;62957.72;5015035;28;20203;-77
2023/04/30 00:28:32;;;;;;;7.38;4.38;;;;;;;9.21;100.00;62948.41;5021343;28;20226;-79
2023/04/30 00:30:59;;;;;;;5.97;4.70;;;;;;;9.23;100.00;62950.00;5019067;28;20202;-78
2023/04/30 00:33:27;;;;;;;4.88;4.22;;;;;;;9.23;100.00;62950.50;5026666;28;20230;-78
2023/04/30 00:35:54;;;;;;;4.22;3.92;;;;;;;9.28;100.00;62952.63;5007916;28;20207;-79
2023/04/30 00:38:21;;;;;;;7.45;4.50;;;;;;;9.24;100.00;62951.53;5007559;28;20226;-78
2023/04/30 00:40:50;;;;;;;5.95;5.05;;;;;;;9.28;100.00;62955.16;5012539;28;20191;-78
2023/04/30 00:43:17;;;;;;;6.82;4.53;;;;;;;9.25;100.00;62957.13;5015649;28;20674;-78
2023/04/30 00:45:44;;;;;;;8.18;4.18;;;;;;;9.15;100.00;62944.25;5026186;28;20219;-78
2023/04/30 00:48:11;;;;;;;7.60;4.40;;;;;;;9.18;100.00;62944.81;5016603;28;20242;-78
2023/04/30 00:50:38;;;;;;;8.05;4.75;;;;;;;9.18;100.00;62947.88;5010294;28;20230;-77
2023/04/30 00:53:07;;;;;;;4.90;4.40;;;;;;;9.13;100.00;62942.69;5017854;28;20282;-77
2023/04/30 00:55:34;;;;;;;11.82;4.57;;;;;;;9.11;100.00;62938.09;5017325;28;20273;-78
2023/04/30 00:58:03;;;;;;;4.47;4.15;;;;;;;9.05;100.00;62933.91;5011373;28;20239;-77
2023/04/30 01:00:30;;;;;;;5.05;3.97;;;;;;;8.99;100.00;62927.72;5018793;28;20256;-78
2023/04/30 01:02:58;;;;;;;4.65;4.28;;;;;;;8.97;100.00;62923.63;5027631;28;20227;-76
2023/04/30 01:05:25;;;;;;;5.35;3.78;;;;;;;8.95;100.00;62924.09;5013433;28;20206;-78
2023/04/30 01:07:54;;;;;;;6.97;4.90;;;;;;;8.98;100.00;62926.69;5021170;28;20245;-77
2023/04/30 01:10:27;;;;;;;6.03;4.15;;;;;;;8.87;100.00;62910.75;5027950;28;20203;-77
2023/04/30 01:12:58;;;;;;;5.15;4.45;;;;;;;8.96;100.00;62917.50;5027958;28;20227;-77
2023/04/30 01:15:33;;;;;;;5.32;4.55;;;;;;;9.03;100.00;62931.84;5017556;28;20297;-76
2023/04/30 01:18:07;;;;;;;5.18;4.65;;;;;;;9.03;100.00;62931.84;5006642;28;20558;-78
2023/04/30 01:20:38;;;;;;;5.55;3.95;;;;;;;8.98;100.00;62924.66;5006175;28;20207;-77
2023/04/30 01:23:19;;;;;;;5.00;4.60;;;;;;;8.95;100.00;62921.03;5009344;28;20249;-78
2023/04/30 01:26:07;;;;;;;5.15;4.15;;;;;;;8.93;100.00;62916.44;5018508;28;20199;-78
2023/04/30 01:28:37;;;;;;;5.32;4.75;;;;;;;8.92;100.00;62915.41;5025306;28;20234;-77
2023/04/30 01:31:11;;;;;;;4.93;4.53;;;;;;;8.84;100.00;62909.66;5006203;28;20192;-76
2023/04/30 01:33:38;;;;;;;13.55;4.72;;;;;;;8.85;100.00;62908.16;5017249;28;20283;-79
2023/04/30 01:36:26;;;;;;;6.45;4.43;;;;;;;8.89;100.00;62914.84;5008939;28;20387;-77
2023/04/30 01:39:07;;;;;;;7.07;4.75;;;;;;;8.82;100.00;62913.19;5010114;28;20293;-79
2023/04/30 01:41:40;;;;;;;4.68;4.30;;;;;;;8.80;100.00;62903.00;5017847;28;20214;-77
2023/04/30 01:44:21;;;;;;;5.55;4.97;;;;;;;8.78;100.00;62906.00;5008186;28;20200;-77
2023/04/30 01:46:58;;;;;;;4.63;4.22;;;;;;;8.69;100.00;62894.69;5005606;28;20278;-77
2023/04/30 01:49:37;;;;;;;9.23;4.70;;;;;;;8.77;100.00;62902.94;5007304;28;20215;-78
2023/04/30 01:52:19;;;;;;;6.53;4.72;;;;;;;8.62;100.00;62886.94;5013358;28;20226;-77
2023/04/30 01:54:52;;;;;;;6.55;5.25;;;;;;;8.66;100.00;62891.06;5016469;28;20210;-77
2023/04/30 01:57:27;;;;;;;8.43;4.40;;;;;;;8.63;100.00;62895.59;5009330;28;20223;-76
2023/04/30 01:59:57;;;;;;;7.32;5.07;;;;;;;8.63;100.00;62885.94;5007513;28;20203;-77
2023/04/30 02:02:24;;;;;;;5.40;4.90;;;;;;;8.66;100.00;62899.19;5007336;28;20227;-77
2023/04/30 02:04:51;;;;;;;4.43;4.13;;;;;;;8.65;100.00;62887.50;5006442;28;20293;-77
2023/04/30 02:07:36;;;;;;;5.15;4.50;;;;;;;8.61;100.00;62883.88;5006147;28;20274;-79
2023/04/30 02:10:03;;;;;;;8.10;4.55;;;;;;;8.60;100.00;62882.84;5026264;28;20235;-78
2023/04/30 02:12:30;;;;;;;5.10;3.85;;;;;;;8.73;100.00;62900.84;5023806;28;20519;-77
2023/04/30 02:14:59;;;;;;;10.30;4.68;;;;;;;8.76;100.00;62898.88;5027133;28;20213;-76
2023/04/30 02:17:28;;;;;;;3.95;3.55;;;;;;;8.75;100.00;62902.91;5020093;28;20223;-77
2023/04/30 02:19:55;;;;;;;5.97;3.60;;;;;;;8.77;100.00;62905.50;5010229;28;20210;-78
2023/04/30 02:22:22;;;;;;;4.50;4.10;;;;;;;8.84;100.00;62917.28;5025489;28;20566;-77
2023/04/30 02:24:50;;;;;;;3.78;3.40;;;;;;;8.84;100.00;62910.19;5025986;28;20323;-76
2023/04/30 02:27:17;;;;;;;4.50;4.05;;;;;;;8.84;100.00;62912.19;5013780;28;20286;-78
2023/04/30 02:29:45;;;;;;;4.32;3.97;;;;;;;8.77;100.00;62902.44;5012161;28;20241;-78
2023/04/30 02:32:14;;;;;;;4.30;3.85;;;;;;;8.78;100.00;62898.91;5013720;28;20222;-77
2023/04/30 02:34:41;;;;;;;8.18;4.45;;;;;;;8.71;100.00;62896.75;5013610;28;20278;-77
2023/04/30 02:37:09;;;;;;;3.85;3.50;;;;;;;8.72;100.00;62895.25;5025115;28;20238;-78
2023/04/30 02:39:36;;;;;;;4.63;4.13;;;;;;;8.73;100.00;62898.81;5021463;28;20214;-78
2023/04/30 02:42:03;;;;;;;7.95;4.60;;;;;;;8.74;100.00;62897.31;5025545;28;20222;-77
2023/04/30 02:44:30;;;;;;;4.30;3.90;;;;;;;8.75;100.00;62900.88;5017793;28;20222;-78
2023/04/30 02:46:57;;;;;;;4.47;4.05;;;;;;;8.81;100.00;62904.56;5005488;28;20211;-78
2023/04/30 02:49:27;;;;;;;6.18;4.38;;;;;;;8.89;100.00;62917.88;5025433;28;20234;-79
2023/04/30 02:51:54;;;;;;;5.13;4.63;;;;;;;8.92;100.00;62921.00;5027370;28;20226;-78
2023/04/30 02:54:21;;;;;;;4.95;4.20;;;;;;;9.01;100.00;62927.75;5021013;28;20213;-78
2023/04/30 02:56:48;;;;;;;4.88;4.30;;;;;;;9.06;100.00;62932.41;5014572;28;20203;-77
2023/04/30 02:59:16;;;;;;;5.95;4.38;;;;;;;9.18;100.00;62945.31;5005419;28;20211;-78
2023/04/30 03:01:42;;;;;;;6.70;4.40;;;;;;;9.26;100.00;62953.09;5005297;28;20200;-79
2023/04/30 03:04:10;;;;;;;4.60;4.20;;;;;;;9.30;100.00;62959.78;5005118;28;20195;-77
2023/04/30 03:06:38;;;;;;;4.40;4.10;;;;;;;9.34;100.00;62963.88;5004549;28;20234;-77
2023/04/30 03:09:05;;;;;;;4.78;4.38;;;;;;;9.38;100.00;62964.97;5008029;28;20241;-78
2023/04/30 03:11:36;;;;;;;6.38;3.90;;;;;;;9.43;100.00;62970.13;5005620;28;20226;-76
2023/04/30 03:14:03;;;;;;;5.60;4.28;;;;;;;9.46;100.00;62976.28;5004181;28;20246;-77
2023/04/30 03:16:30;;;;;;;4.70;4.30;;;;;;;9.33;100.00;62960.84;5006658;28;20203;-78
2023/04/30 03:18:58;;;;;;;5.03;4.60;;;;;;;9.44;100.00;62971.69;5005809;28;20223;-77
2023/04/30 03:21:25;;;;;;;4.85;4.40;;;;;;;9.48;100.00;62975.81;5005787;28;20302;-79
2023/04/30 03:23:54;;;;;;;6.50;4.47;;;;;;;9.59;100.00;62984.66;5009845;28;20223;-78
2023/04/30 03:26:21;;;;;;;5.72;5.18;;;;;;;9.66;100.00;62994.44;5006164;28;20242;-78
2023/04/30 03:28:48;;;;;;;7.45;5.28;;;;;;;9.70;100.00;62995.53;5005435;28;20239;-78
2023/04/30 03:31:16;;;;;;;8.70;4.68;;;;;;;9.80;100.00;63008.41;5025708;28;20195;-77
2023/04/30 03:33:44;;;;;;;7.28;5.63;;;;;;;9.85;100.00;63014.09;5005993;28;20220;-77
2023/04/30 03:36:11;;;;;;;7.90;5.95;;;;;;;9.96;100.00;63027.50;5008842;28;20203;-78
2023/04/30 03:38:38;;;;;;;7.35;6.65;;;;;;;9.96;100.00;63027.50;5010523;28;20296;-77
2023/04/30 03:41:08;;;;;;;10.70;6.47;;;;;;;10.00;100.00;63029.63;5017828;28;20206;-78
2023/04/30 03:43:35;;;;;;;9.77;5.95;;;;;;;10.07;100.00;63039.41;5028923;28;20231;-77
2023/04/30 03:46:02;;;;;;;6.75;5.90;;;;;;;10.17;100.00;63049.25;5011827;28;20195;-78
2023/04/30 03:48:29;;;;;;;8.40;5.47;;;;;;;10.26;100.00;63056.53;5028206;28;20218;-79
2023/04/30 03:50:57;;;;;;;6.60;4.30;;;;;;;10.29;100.00;63059.63;5012155;28;20266;-79
2023/04/30 03:53:25;;;;;;;6.95;5.13;;;;;;;10.38;100.00;63068.44;5018739;28;20218;-77
2023/04/30 03:55:53;;;;;;;5.25;4.45;;;;;;;10.37;100.00;63067.41;5026095;28;20258;-78
2023/04/30 03:58:22;;;;;;;7.00;4.90;;;;;;;10.37;100.00;63069.94;5017347;28;20412;-76
2023/04/30 04:00:50;;;;;;;9.57;5.68;;;;;;;10.40;100.00;63071.03;5027224;28;20203;-78
2023/04/30 04:03:17;;;;;;;7.78;5.13;;;;;;;10.47;100.00;63078.25;5024583;28;20219;-79
2023/04/30 04:05:44;;;;;;;5.05;4.60;;;;;;;10.44;100.00;63070.06;5009349;28;20222;-78
2023/04/30 04:08:12;;;;;;;7.78;6.28;;;;;;;10.46;100.00;63074.69;5010603;28;20218;-78
2023/04/30 04:10:40;;;;;;;10.85;6.35;;;;;;;10.37;100.00;63072.50;5009943;28;20234;-78
2023/04/30 04:13:07;;;;;;;7.95;6.00;;;;;;;10.52;100.00;63088.00;5026095;28;20230;-78
2023/04/30 04:15:37;;;;;;;7.32;5.60;;;;;;;10.64;100.00;63095.34;5017974;28;20206;-77
2023/04/30 04:18:05;;;;;;;6.88;6.22;;;;;;;10.54;100.00;63085.00;5028289;28;20274;-78
2023/04/30 04:20:32;;;;;;;8.68;7.18;;;;;;;10.64;100.00;63099.91;5028143;28;20201;-78
2023/04/30 04:22:59;;;;;;;8.85;7.95;;;;;;;10.80;100.00;63116.47;5027361;28;20226;-79
2023/04/30 04:25:27;;;;;;;11.70;9.00;;;;;;;10.83;100.00;63115.00;5009694;28;20230;-77
2023/04/30 04:27:59;;;;;;;9.55;7.47;;;;;;;10.83;100.00;63114.47;5010021;28;20231;-78
2023/04/30 04:30:28;;;;;;;10.23;9.07;;;;;;;10.61;100.00;63089.69;5026394;28;20257;-79
2023/04/30 04:32:56;;;;;;;11.40;8.82;;;;;;;10.64;100.00;63094.81;5019299;28;20230;-78
2023/04/30 04:35:23;;;;;;;11.13;8.90;;;;;;;10.73;100.00;63104.13;5007986;28;20274;-79
2023/04/30 04:37:50;;;;;;;12.65;8.35;;;;;;;10.76;100.00;63112.34;5008260;28;20229;-78
2023/04/30 04:40:17;;;;;;;12.68;7.90;;;;;;;10.74;100.00;63108.22;5007750;28;20377;-77
2023/04/30 04:42:45;;;;;;;9.55;8.00;;;;;;;10.65;100.00;63098.91;5010265;28;20227;-77
2023/04/30 04:45:14;;;;;;;11.02;8.55;;;;;;;10.72;100.00;63105.63;5010448;28;20200;-79
2023/04/30 04:47:41;;;;;;;13.05;9.27;;;;;;;10.81;100.00;63112.94;5021492;28;20222;-76
2023/04/30 04:50:11;;;;;;;11.50;8.57;;;;;;;10.86;100.00;63118.09;5006155;28;20438;-77
2023/04/30 04:52:39;;;;;;;10.75;8.30;;;;;;;10.96;100.00;63125.41;5011058;28;20237;-77
2023/04/30 04:55:07;;;;;;;11.05;9.02;;;;;;;10.93;100.00;63124.84;5026538;28;20202;-78
2023/04/30 04:57:34;;;;;;;10.15;8.68;;;;;;;11.10;100.00;63142.44;5027208;28;20233;-77
2023/04/30 05:00:02;;;;;;;11.60;8.23;;;;;;;11.00;100.00;63135.16;5026999;28;20198;-78
2023/04/30 05:02:30;;;;;;;12.77;8.73;;;;;;;11.04;100.00;63139.31;5029428;28;20214;-77
2023/04/30 05:04:56;;;;;;;11.68;9.18;;;;;;;11.02;100.00;63139.78;5005732;28;20196;-77
2023/04/30 05:07:25;;;;;;;13.95;8.68;;;;;;;11.04;100.00;63136.75;5006048;28;20230;-77
2023/04/30 05:09:52;;;;;;;14.15;8.85;;;;;;;11.08;100.00;63140.38;5007529;28;20250;-78
2023/04/30 05:12:19;;;;;;;14.13;9.68;;;;;;;11.16;100.00;63148.66;5005919;28;20219;-78
2023/04/30 05:14:48;;;;;;;10.93;8.25;;;;;;;11.25;100.00;63158.50;5007655;28;20203;-77
2023/04/30 05:17:15;;;;;;;10.35;8.32;;;;;;;11.21;100.00;63151.81;5012380;28;20284;-77
2023/04/30 05:19:46;;;;;;;9.80;8.55;;;;;;;11.29;100.00;63162.13;5024338;28;20233;-78
2023/04/30 05:22:13;;;;;;;11.20;8.27;;;;;;;11.34;100.00;63165.25;5027661;28;20392;-77
2023/04/30 05:24:42;;;;;;;12.73;8.60;;;;;;;11.41;100.00;63172.00;5027199;28;20191;-79
2023/04/30 05:27:09;;;;;;;9.95;8.40;;;;;;;11.44;100.00;63177.66;5015143;28;20219;-78
2023/04/30 05:29:37;;;;;;;14.23;8.75;;;;;;;11.55;100.00;63197.22;5008844;28;20424;-78
2023/04/30 05:32:04;;;;;;;12.13;8.60;;;;;;;11.60;100.00;63197.31;5010221;28;20254;-78
2023/04/30 05:34:32;;;;;;;11.63;9.65;;;;;;;11.55;100.00;63189.56;5011549;28;20350;-78
2023/04/30 05:37:00;;;;;;;13.10;8.52;;;;;;;11.76;100.00;63210.81;5010526;28;20243;-77
2023/04/30 05:39:27;;;;;;;11.57;8.88;;;;;;;11.86;99.66;63213.00;5011536;28;20270;-80
2023/04/30 05:41:56;;;;;;;13.02;8.77;;;;;;;11.84;99.03;63219.09;5012963;28;20230;-79
2023/04/30 05:44:24;;;;;;;10.18;8.40;;;;;;;11.68;100.00;63202.03;5011099;28;20211;-78
2023/04/30 05:46:51;;;;;;;11.70;9.35;;;;;;;11.73;100.00;63210.28;5008840;28;20223;-79
2023/04/30 05:49:18;;;;;;;13.77;9.65;;;;;;;11.83;99.08;63215.53;5015137;28;20199;-78
2023/04/30 05:51:45;;;;;;;13.40;9.18;;;;;;;11.89;100.00;63224.28;5016170;28;20259;-78
2023/04/30 05:54:12;;;;;;;11.50;8.68;;;;;;;12.05;99.28;63245.47;5022583;28;20441;-77
2023/04/30 05:56:40;;;;;;;12.93;9.05;;;;;;;12.16;97.61;63254.84;5013820;28;20245;-80
2023/04/30 05:59:09;;;;;;;12.10;9.25;;;;;;;12.17;95.91;63255.34;5012150;28;20230;-78
2023/04/30 06:01:36;;;;;;;13.88;8.85;;;;;;;12.26;95.25;63262.13;5011492;28;20210;-79
2023/04/30 06:04:04;;;;;;;14.55;9.13;;;;;;;12.50;94.20;63290.06;5016997;28;20209;-79
2023/04/30 06:06:31;;;;;;;18.15;9.10;;;;;;;12.67;92.99;63304.63;5017110;28;20476;-79
2023/04/30 06:08:58;;;;;;;15.10;9.40;;;;;;;12.74;92.13;63309.31;5010621;28;20195;-77
2023/04/30 06:11:27;;;;;;;10.20;8.65;;;;;;;12.88;90.52;63328.97;5015477;28;20303;-78
2023/04/30 06:13:54;;;;;;;10.23;8.30;;;;;;;13.08;89.77;63344.09;5012577;28;20229;-78
2023/04/30 06:16:24;;;;;;;10.23;8.63;;;;;;;13.22;87.52;63363.75;5022627;28;20277;-79
2023/04/30 06:18:51;;;;;;;11.50;8.50;;;;;;;13.30;86.52;63372.03;5009521;28;20219;-77
2023/04/30 06:21:19;;;;;;;13.65;9.13;;;;;;;13.26;87.89;63365.84;5020140;28;20202;-78
2023/04/30 06:23:46;;;;;;;12.30;9.07;;;;;;;13.37;84.57;63379.31;5013489;28;20675;-77
2023/04/30 06:26:14;;;;;;;12.02;9.05;;;;;;;13.25;85.54;63364.28;5020467;28;20515;-78
2023/04/30 06:28:41;;;;;;;13.32;9.02;;;;;;;13.33;83.85;63370.56;5012398;28;20240;-77
2023/04/30 06:31:08;;;;;;;15.15;8.43;;;;;;;13.15;82.77;63351.38;5014370;28;20240;-78
2023/04/30 06:33:37;;;;;;;10.13;8.38;;;;;;;13.03;84.72;63341.97;5011503;28;20590;-79
2023/04/30 06:36:05;;;;;;;12.23;8.85;;;;;;;13.54;82.72;63392.34;5019203;28;20377;-78
2023/04/30 06:38:32;;;;;;;15.27;9.48;;;;;;;13.81;80.45;63422.41;5013566;28;20562;-78
2023/04/30 06:40:59;;;;;;;12.23;9.68;;;;;;;13.63;80.12;63403.72;5021891;28;20195;-76
2023/04/30 06:43:27;;;;;;;16.35;9.32;;;;;;;13.61;79.78;63404.72;5010297;28;20481;-77
2023/04/30 06:45:54;;;;;;;13.65;8.55;;;;;;;13.22;79.65;63361.19;5007459;28;20204;-79
2023/04/30 06:48:22;;;;;;;15.60;9.05;;;;;;;13.13;81.29;63347.22;5008190;28;20225;-77
2023/04/30 06:50:50;;;;;;;15.07;10.02;;;;;;;12.87;82.82;63329.97;5008010;28;20239;-77
2023/04/30 06:53:19;;;;;;;14.23;8.93;;;;;;;12.73;84.34;63313.41;5015574;28;20431;-77
2023/04/30 06:55:46;;;;;;;21.92;9.93;;;;;;;12.74;85.81;63312.41;5025809;28;20241;-77
2023/04/30 06:58:14;;;;;;;10.88;8.77;;;;;;;12.92;84.04;63333.13;5007966;28;20219;-76
2023/04/30 07:00:41;;;;;;;13.00;10.35;;;;;;;13.18;83.74;63362.66;5024944;28;20207;-79
2023/04/30 07:03:08;;;;;;;14.77;9.43;;;;;;;13.86;76.90;63430.16;5018967;28;20245;-78
2023/04/30 07:05:35;;;;;;;15.23;9.95;;;;;;;13.88;74.68;63432.22;5013510;28;20213;-77
2023/04/30 07:08:04;;;;;;;13.23;9.93;;;;;;;14.08;75.11;63452.47;5010250;28;20298;-77
2023/04/30 07:10:32;;;;;;;15.30;11.48;;;;;;;13.94;75.93;63436.41;5019970;28;20280;-76
2023/04/30 07:12:59;;;;;;;16.27;10.48;;;;;;;13.74;79.89;63422.81;5029261;28;20225;-76
2023/04/30 07:15:26;;;;;;;14.55;10.98;;;;;;;13.73;78.17;63412.06;5021272;28;20211;-76
2023/04/30 07:17:56;;;;;;;26.13;10.82;;;;;;;13.92;75.77;63431.25;5019527;28;20229;-77
2023/04/30 07:20:24;;;;;;;16.02;11.05;;;;;;;14.01;77.41;63445.72;5014543;28;20206;-78
2023/04/30 07:22:51;;;;;;;15.38;10.43;;;;;;;13.94;77.70;63436.41;5021501;28;20282;-78
2023/04/30 07:25:20;;;;;;;17.30;10.65;;;;;;;13.85;77.13;63426.56;5012061;28;20203;-78
2023/04/30 07:27:49;;;;;;;13.95;9.80;;;;;;;13.60;78.48;63400.59;5026346;28;20214;-78
2023/04/30 07:30:16;;;;;;;15.20;10.02;;;;;;;13.58;80.20;63401.09;5024946;28;20277;-79
2023/04/30 07:32:43;;;;;;;15.45;10.38;;;;;;;13.75;79.56;63416.19;5017326;28;20235;-77
2023/04/30 07:35:10;;;;;;;14.68;9.15;;;;;;;13.77;77.88;63413.13;5019426;28;20199;-78
2023/04/30 07:37:37;;;;;;;10.65;9.50;;;;;;;14.06;76.46;63450.41;5021110;28;20227;-79
2023/04/30 07:40:06;;;;;;;9.82;7.88;;;;;;;14.10;72.89;63449.44;5017380;28;20187;-78
2023/04/30 07:42:35;;;;;;;12.27;8.57;;;;;;;14.08;74.26;63449.91;5019507;28;20226;-78
2023/04/30 07:45:03;;;;;;;12.23;8.30;;;;;;;14.05;74.03;63449.38;5027561;28;20198;-77
2023/04/30 07:47:30;;;;;;;11.43;8.40;;;;;;;13.72;74.55;63418.69;5014359;28;20240;-79
2023/04/30 07:49:57;;;;;;;11.27;9.30;;;;;;;13.76;75.56;63419.75;5028105;28;20265;-78
2023/04/30 07:52:24;;;;;;;13.65;8.73;;;;;;;13.77;75.78;63418.25;5010619;28;20578;-79
2023/04/30 07:54:52;;;;;;;11.93;8.10;;;;;;;13.76;75.68;63417.72;5010000;28;20246;-79
2023/04/30 07:57:19;;;;;;;14.25;8.02;;;;;;;14.16;72.65;63458.75;5012957;28;20401;-78
2023/04/30 07:59:47;;;;;;;9.68;7.32;;;;;;;14.14;72.74;63458.69;5016126;28;20207;-79
2023/04/30 08:02:15;;;;;;;12.32;8.27;;;;;;;14.11;72.69;63453.53;5020483;28;20427;-78
2023/04/30 08:04:42;;;;;;;12.88;7.38;;;;;;;14.18;71.31;63460.81;5009685;28;20558;-79
2023/04/30 08:07:11;;;;;;;12.98;7.97;;;;;;;14.32;69.80;63477.94;5010856;28;20249;-81
2023/04/30 08:09:38;;;;;;;9.55;7.10;;;;;;;14.68;67.58;63517.38;5020906;28;20273;-78
2023/04/30 08:12:05;;;;;;;11.50;7.68;;;;;;;14.71;67.38;63515.34;5014222;28;20235;-78
2023/04/30 08:14:33;;;;;;;12.82;7.30;;;;;;;14.76;67.88;63525.66;5013368;28;20203;-81
2023/04/30 08:17:02;;;;;;;10.32;7.32;;;;;;;15.01;66.82;63554.22;5010770;28;20226;-82
2023/04/30 08:19:29;;;;;;;11.25;6.97;;;;;;;15.19;64.08;63567.25;5027602;28;20206;-78
2023/04/30 08:21:57;;;;;;;8.30;5.07;;;;;;;15.18;62.36;63563.66;5029831;28;20285;-81
2023/04/30 08:24:24;;;;;;;8.45;5.55;;;;;;;15.12;62.60;63560.50;5029850;28;20199;-77
2023/04/30 08:26:51;;;;;;;10.00;5.13;;;;;;;15.41;62.32;63588.09;5020650;28;20283;-81
2023/04/30 08:29:18;;;;;;;5.35;4.78;;;;;;;15.61;60.23;63608.38;5030378;28;20201;-79
2023/04/30 08:31:46;;;;;;;4.88;4.47;;;;;;;15.13;61.34;63558.47;5008978;28;20463;-79
2023/04/30 08:34:14;;;;;;;4.78;4.32;;;;;;;15.39;60.05;63585.50;5010500;28;20222;-78
2023/04/30 08:36:43;;;;;;;4.88;4.47;;;;;;;15.08;61.21;63551.75;5011355;28;20241;-83
2023/04/30 08:39:10;;;;;;;4.72;4.43;;;;;;;14.74;59.18;63521.53;5008885;28;20587;-78
2023/04/30 08:41:39;;;;;;;4.82;3.97;;;;;;;14.51;60.36;63497.16;5009870;28;20266;-78
2023/04/30 08:44:06;;;;;;;4.95;4.55;;;;;;;14.71;59.96;63515.88;5019040;28;20195;-78
2023/04/30 08:46:36;;;;;;;3.38;3.17;;;;;;;15.06;58.96;63554.28;5028898;28;20267;-81
2023/04/30 08:49:03;;;;;;;4.15;3.83;;;;;;;15.54;56.13;63603.66;5028917;28;20195;-79
2023/04/30 08:51:34;;;;;;;4.03;3.72;;;;;;;15.82;55.51;63627.66;5031292;28;20240;-81
2023/04/30 08:54:01;;;;;;;3.90;3.65;;;;;;;15.49;57.00;63596.44;5021949;28;20240;-79
2023/04/30 08:56:30;;;;;;;4.57;3.50;;;;;;;15.41;56.90;63587.59;5016426;28;20258;-82
2023/04/30 08:58:57;;;;;;;5.53;4.28;;;;;;;15.73;57.83;63625.97;5010085;28;20195;-78
2023/04/30 09:01:25;;;;;;;4.18;3.78;;;;;;;15.68;58.36;63615.66;5009063;28;20195;-79
2023/04/30 09:03:53;;;;;;;3.40;3.13;;;;;;;15.81;55.06;63629.69;5018758;28;20241;-82
2023/04/30 09:06:20;;;;;;;3.78;3.35;;;;;;;15.66;55.62;63613.56;5024996;28;20420;-81
2023/04/30 09:08:51;;;;;;;3.38;3.08;;;;;;;15.46;54.82;63590.72;5028753;28;20297;-81
2023/04/30 09:11:23;;;;;;;4.03;3.63;;;;;;;15.74;55.57;63622.41;5021602;28;20254;-82
2023/04/30 09:13:51;;;;;;;5.55;3.85;;;;;;;15.90;55.71;63638.53;5022283;28;20287;-79
2023/04/30 09:16:19;;;;;;;4.13;3.75;;;;;;;16.10;54.24;63659.34;5030701;28;20507;-80
2023/04/30 09:18:46;;;;;;;4.03;3.70;;;;;;;16.33;54.35;63682.72;5031901;28;20238;-83
2023/04/30 09:21:14;;;;;;;4.30;3.60;;;;;;;16.47;53.10;63697.31;5023866;28;20198;-78
2023/04/30 09:23:57;;;;;;;5.43;4.70;;;;;;;16.33;53.46;63680.16;5011132;28;20222;-81
2023/04/30 09:26:28;;;;;;;8.30;4.13;;;;;;;16.60;52.71;63711.34;5012615;28;20208;-79
2023/04/30 09:28:56;;;;;;;5.15;4.30;;;;;;;16.67;52.56;63720.69;5023307;28;20289;-78
2023/04/30 09:31:25;;;;;;;4.35;3.95;;;;;;;16.70;52.55;63721.75;5014668;28;20250;-77
2023/04/30 09:33:52;;;;;;;4.00;3.70;;;;;;;16.70;53.18;63719.19;5017448;28;20226;-79
2023/04/30 09:36:20;;;;;;;5.38;4.03;;;;;;;16.54;51.38;63704.59;5011183;28;20202;-77
2023/04/30 09:38:47;;;;;;;4.82;4.18;;;;;;;16.40;52.50;63690.00;5017422;28;20277;-76
2023/04/30 09:41:27;;;;;;;4.13;3.83;;;;;;;16.51;52.93;63704.03;5017023;28;20306;-77
2023/04/30 09:43:54;;;;;;;4.45;3.45;;;;;;;16.75;50.91;63734.16;5011519;28;20246;-77
2023/04/30 09:46:22;;;;;;;4.22;3.90;;;;;;;16.92;50.74;63744.66;5008014;28;20210;-77
2023/04/30 09:48:58;;;;;;;6.13;3.20;;;;;;;17.28;48.06;63782.13;5014125;28;20218;-77
2023/04/30 09:51:28;;;;;;;2.97;2.78;;;;;;;16.94;49.42;63751.34;5007140;28;20293;-78
2023/04/30 09:53:56;;;;;;;3.65;3.33;;;;;;;17.10;50.40;63768.53;5018968;28;20530;-79
2023/04/30 09:56:27;;;;;;;3.17;2.70;;;;;;;17.23;47.01;63781.53;5012567;28;20351;-79
2023/04/30 09:58:57;;;;;;;2.88;2.67;;;;;;;17.10;47.33;63765.44;5006599;28;20240;-79
2023/04/30 10:01:27;;;;;;;3.72;2.85;;;;;;;16.93;49.49;63743.09;5006633;28;20207;-79
2023/04/30 10:03:54;;;;;;;3.38;3.17;;;;;;;17.01;48.39;63754.03;5007478;28;20281;-78
2023/04/30 10:06:22;;;;;;;2.95;2.78;;;;;;;17.05;48.84;63760.25;5013345;28;20222;-77
2023/04/30 10:08:56;;;;;;;2.58;2.47;;;;;;;16.93;48.07;63745.16;5020761;28;20233;-77
2023/04/30 10:11:33;;;;;;;3.60;3.40;;;;;;;17.04;48.82;63756.63;5017465;28;20241;-78
2023/04/30 10:14:02;;;;;;;3.13;2.95;;;;;;;17.06;49.82;63761.28;5008627;28;20214;-80
2023/04/30 10:16:38;;;;;;;3.63;3.45;;;;;;;17.14;49.91;63767.53;5010486;28;20215;-82
2023/04/30 10:19:13;;;;;;;3.33;3.22;;;;;;;17.46;48.86;63802.41;5009360;28;20218;-78
2023/04/30 10:21:42;;;;;;;3.33;3.13;;;;;;;17.52;48.07;63808.66;5008752;28;20216;-78
2023/04/30 10:24:10;;;;;;;2.88;2.72;;;;;;;17.82;45.83;63837.31;5017804;28;20209;-78
2023/04/30 10:26:40;;;;;;;6.13;2.70;;;;;;;17.63;47.22;63820.13;5008808;28;20241;-79
2023/04/30 10:29:08;;;;;;;3.08;2.95;;;;;;;17.71;45.96;63826.38;5021812;28;20237;-80
2023/04/30 10:31:37;;;;;;;3.80;3.17;;;;;;;17.24;47.39;63777.44;5009035;28;20257;-79
2023/04/30 10:34:14;;;;;;;3.55;3.25;;;;;;;17.25;48.74;63775.91;5013294;28;20253;-81
2023/04/30 10:36:47;;;;;;;3.13;2.95;;;;;;;16.85;50.41;63739.41;5018624;28;20202;-78
2023/04/30 10:39:15;;;;;;;7.72;3.70;;;;;;;16.29;52.61;63681.66;5019569;28;20199;-79
2023/04/30 10:41:47;;;;;;;4.07;3.67;;;;;;;15.87;54.11;63635.94;5010956;28;20258;-83
2023/04/30 10:44:15;;;;;;;5.20;4.40;;;;;;;15.43;55.78;63587.63;5011036;28;20226;-79
2023/04/30 10:46:43;;;;;;;5.32;4.38;;;;;;;14.64;77.53;63513.72;5010413;28;20242;-79
2023/04/30 10:49:13;;;;;;;5.50;4.65;;;;;;;13.78;89.59;63419.28;5013935;28;20214;-81
2023/04/30 10:51:53;;;;;;;5.90;5.40;;;;;;;13.08;100.00;63347.16;5015931;28;20451;-82
2023/04/30 10:54:26;;;;;;;6.35;5.75;;;;;;;12.74;100.00;63309.84;5015990;28;20213;-82
2023/04/30 10:57:10;;;;;;;7.10;6.20;;;;;;;12.70;100.00;63308.25;5020815;28;20294;-82
2023/04/30 10:59:37;;;;;;;7.05;6.45;;;;;;;12.84;100.00;63326.84;5018208;28;20207;-81
2023/04/30 11:02:05;;;;;;;9.85;7.43;;;;;;;13.01;100.00;63339.88;5019887;28;20241;-80
2023/04/30 11:04:32;;;;;;;9.95;8.68;;;;;;;13.19;100.00;63363.69;5016583;28;20259;-79
2023/04/30 11:07:08;;;;;;;9.30;7.22;;;;;;;13.54;100.00;63396.94;5018267;28;20215;-79
2023/04/30 11:09:41;;;;;;;7.90;7.18;;;;;;;13.69;100.00;63410.47;5020165;28;20216;-79
2023/04/30 11:12:14;;;;;;;7.75;7.05;;;;;;;14.00;100.00;63444.16;5030022;28;20424;-79
2023/04/30 11:14:43;;;;;;;8.13;7.10;;;;;;;14.35;100.00;63480.53;5023315;28;20194;-77
2023/04/30 11:17:11;;;;;;;8.02;5.63;;;;;;;14.67;100.00;63508.63;5017666;28;20259;-79
2023/04/30 11:19:48;;;;;;;5.07;4.63;;;;;;;15.09;100.00;63554.84;5014563;28;20446;-77
2023/04/30 11:22:17;;;;;;;6.57;5.03;;;;;;;15.40;94.91;63589.09;5017737;28;20218;-77
2023/04/30 11:24:55;;;;;;;3.72;3.53;;;;;;;15.77;89.49;63625.00;5016617;28;20196;-79
2023/04/30 11:27:25;;;;;;;4.15;3.80;;;;;;;16.11;89.45;63662.94;5012694;28;20286;-77
2023/04/30 11:29:53;;;;;;;4.03;3.60;;;;;;;16.34;80.18;63686.88;5009193;28;20215;-75
2023/04/30 11:32:22;;;;;;;3.17;3.03;;;;;;;16.04;68.04;63658.75;5014852;28;20380;-77
2023/04/30 11:34:50;;;;;;;3.50;3.20;;;;;;;16.14;63.58;63666.56;5013780;28;20207;-75
2023/04/30 11:37:20;;;;;;;4.25;3.85;;;;;;;16.09;70.86;63663.94;5015792;28;20229;-75